sensor_id;sensor_type;location;lat;lon;timestamp;pressure;altitude;pressure_sealevel;temperature;humidity
10806;BME280;5455;53.224;6.000;2023-01-29T00:01:22;102883.66;;;4.42;100.00
10806;BME280;5455;53.224;6.000;2023-01-29T00:03:50;102874.09;;;4.40;100.00
10806;BME280;5455;53.224;6.000;2023-01-29T00:06:17;102873.28;;;4.39;100.00
10806;BME280;5455;53.224;6.000;2023-01-29T00:08:45;102875.75;;;4.41;100.00
10806;BME280;5455;53.224;6.000;2023-01-29T00:11:12;102878.19;;;4.42;100.00
10806;BME280;5455;53.224;6.000;2023-01-29T00:13:39;102878.19;;;4.42;100.00
10806;BME280;5455;53.224;6.000;2023-01-29T00:16:06;102879.84;;;4.43;100.00
10806;BME280;5455;53.224;6.000;2023-01-29T00:18:37;102879.03;;;4.43;100.00
10806;BME280;5455;53.224;6.000;2023-01-29T00:21:18;102878.78;;;4.44;100.00
10806;BME280;5455;53.224;6.000;2023-01-29T00:23:48;102865.38;;;4.43;100.00
10806;BME280;5455;53.224;6.000;2023-01-29T00:26:16;102874.69;;;4.47;100.00
10806;BME280;5455;53.224;6.000;2023-01-29T00:28:46;102877.72;;;4.51;100.00
10806;BME280;5455;53.224;6.000;2023-01-29T00:31:18;102869.47;;;4.45;100.00
10806;BME280;5455;53.224;6.000;2023-01-29T00:33:46;102871.38;;;4.45;100.00
10806;BME280;5455;53.224;6.000;2023-01-29T00:36:16;102868.41;;;4.47;100.00
10806;BME280;5455;53.224;6.000;2023-01-29T00:38:44;102850.34;;;4.45;100.00
10806;BME280;5455;53.224;6.000;2023-01-29T00:41:21;102853.09;;;4.45;100.00
10806;BME280;5455;53.224;6.000;2023-01-29T00:44:08;102858.84;;;4.44;100.00
10806;BME280;5455;53.224;6.000;2023-01-29T00:46:53;102852.00;;;4.47;100.00
10806;BME280;5455;53.224;6.000;2023-01-29T00:49:20;102856.66;;;4.46;100.00
10806;BME280;5455;53.224;6.000;2023-01-29T00:51:49;102841.09;;;4.47;100.00
10806;BME280;5455;53.224;6.000;2023-01-29T00:54:35;102837.81;;;4.50;100.00
10806;BME280;5455;53.224;6.000;2023-01-29T00:57:02;102839.72;;;4.49;100.00
10806;BME280;5455;53.224;6.000;2023-01-29T00:59:30;102836.16;;;4.49;100.00
10806;BME280;5455;53.224;6.000;2023-01-29T01:01:57;102843.53;;;4.48;100.00
10806;BME280;5455;53.224;6.000;2023-01-29T01:04:43;102840.53;;;4.50;100.00
10806;BME280;5455;53.224;6.000;2023-01-29T01:07:10;102835.63;;;4.52;100.00
10806;BME280;5455;53.224;6.000;2023-01-29T01:09:36;102846.00;;;4.55;100.00
10806;BME280;5455;53.224;6.000;2023-01-29T01:12:21;102849.03;;;4.58;100.00
10806;BME280;5455;53.224;6.000;2023-01-29T01:14:48;102846.84;;;4.60;100.00
10806;BME280;5455;53.224;6.000;2023-01-29T01:17:16;102846.59;;;4.62;100.00
10806;BME280;5455;53.224;6.000;2023-01-29T01:19:43;102843.84;;;4.62;100.00
10806;BME280;5455;53.224;6.000;2023-01-29T01:22:11;102844.94;;;4.61;100.00
10806;BME280;5455;53.224;6.000;2023-01-29T01:24:38;102843.84;;;4.62;100.00
10806;BME280;5455;53.224;6.000;2023-01-29T01:27:05;102843.28;;;4.60;100.00
10806;BME280;5455;53.224;6.000;2023-01-29T01:29:32;102841.38;;;4.60;100.00
10806;BME280;5455;53.224;6.000;2023-01-29T01:31:59;102841.13;;;4.62;100.00
10806;BME280;5455;53.224;6.000;2023-01-29T01:34:27;102836.75;;;4.56;100.00
10806;BME280;5455;53.224;6.000;2023-01-29T01:36:54;102840.53;;;4.60;100.00
10806;BME280;5455;53.224;6.000;2023-01-29T01:39:24;102841.38;;;4.60;100.00
10806;BME280;5455;53.224;6.000;2023-01-29T01:41:52;102847.13;;;4.59;100.00
10806;BME280;5455;53.224;6.000;2023-01-29T01:44:51;102851.47;;;4.60;100.00
10806;BME280;5455;53.224;6.000;2023-01-29T01:47:39;102850.94;;;4.63;100.00
10806;BME280;5455;53.224;6.000;2023-01-29T01:50:12;102828.53;;;4.61;100.00
10806;BME280;5455;53.224;6.000;2023-01-29T01:52:44;102843.28;;;4.60;100.00
10806;BME280;5455;53.224;6.000;2023-01-29T01:55:16;102841.91;;;4.57;100.00
10806;BME280;5455;53.224;6.000;2023-01-29T01:57:49;102841.09;;;4.57;100.00
10806;BME280;5455;53.224;6.000;2023-01-29T02:00:19;102845.75;;;4.56;100.00
10806;BME280;5455;53.224;6.000;2023-01-29T02:02:47;102845.75;;;4.56;100.00
10806;BME280;5455;53.224;6.000;2023-01-29T02:05:34;102853.41;;;4.59;100.00
10806;BME280;5455;53.224;6.000;2023-01-29T02:08:41;102849.03;;;4.58;100.00
10806;BME280;5455;53.224;6.000;2023-01-29T02:11:29;102848.50;;;4.61;100.00
10806;BME280;5455;53.224;6.000;2023-01-29T02:13:56;102853.41;;;4.64;100.00
10806;BME280;5455;53.224;6.000;2023-01-29T02:16:24;102851.22;;;4.66;100.00
10806;BME280;5455;53.224;6.000;2023-01-29T02:18:52;102842.75;;;4.63;100.00
10806;BME280;5455;53.224;6.000;2023-01-29T02:27:02;102835.91;;;4.55;100.00
10806;BME280;5455;53.224;6.000;2023-01-29T02:35:29;102818.16;;;4.48;100.00
10806;BME280;5455;53.224;6.000;2023-01-29T02:45:47;102800.38;;;4.35;100.00
10806;BME280;5455;53.224;6.000;2023-01-29T02:48:22;102793.53;;;4.32;100.00
10806;BME280;5455;53.224;6.000;2023-01-29T02:51:04;102794.31;;;4.33;100.00
10806;BME280;5455;53.224;6.000;2023-01-29T02:54:00;102788.06;;;4.32;100.00
10806;BME280;5455;53.224;6.000;2023-01-29T02:56:34;102779.88;;;4.32;100.00
10806;BME280;5455;53.224;6.000;2023-01-29T02:59:09;102770.56;;;4.28;100.00
10806;BME280;5455;53.224;6.000;2023-01-29T03:01:45;102760.19;;;4.25;100.00
10806;BME280;5455;53.224;6.000;2023-01-29T03:04:19;102756.91;;;4.23;100.00
10806;BME280;5455;53.224;6.000;2023-01-29T03:06:52;102747.06;;;4.22;100.00
10806;BME280;5455;53.224;6.000;2023-01-29T03:09:33;102748.16;;;4.21;100.00
10806;BME280;5455;53.224;6.000;2023-01-29T03:12:16;102743.81;;;4.20;100.00
10806;BME280;5455;53.224;6.000;2023-01-29T03:14:57;102741.63;;;4.22;100.00
10806;BME280;5455;53.224;6.000;2023-01-29T03:18:04;102739.44;;;4.24;100.00
10806;BME280;5455;53.224;6.000;2023-01-29T03:20:46;102737.81;;;4.23;100.00
10806;BME280;5455;53.224;6.000;2023-01-29T03:23:28;102739.44;;;4.24;100.00
10806;BME280;5455;53.224;6.000;2023-01-29T03:26:19;102738.34;;;4.25;100.00
10806;BME280;5455;53.224;6.000;2023-01-29T03:29:07;102722.78;;;4.26;100.00
10806;BME280;5455;53.224;6.000;2023-01-29T03:31:55;102723.03;;;4.24;100.00
10806;BME280;5455;53.224;6.000;2023-01-29T03:34:39;102714.31;;;4.22;100.00
10806;BME280;5455;53.224;6.000;2023-01-29T03:39:57;102730.16;;;4.25;100.00
10806;BME280;5455;53.224;6.000;2023-01-29T03:48:15;102739.72;;;4.28;100.00
10806;BME280;5455;53.224;6.000;2023-01-29T03:53:41;102722.53;;;4.32;100.00
10806;BME280;5455;53.224;6.000;2023-01-29T03:56:33;102722.53;;;4.32;100.00
10806;BME280;5455;53.224;6.000;2023-01-29T03:59:17;102723.06;;;4.34;100.00
10806;BME280;5455;53.224;6.000;2023-01-29T04:02:26;102727.16;;;4.37;100.00
10806;BME280;5455;53.224;6.000;2023-01-29T04:05:03;102726.34;;;4.36;100.00
10806;BME280;5455;53.224;6.000;2023-01-29T04:07:39;102727.16;;;4.37;100.00
10806;BME280;5455;53.224;6.000;2023-01-29T04:10:11;102729.66;;;4.38;100.00
10806;BME280;5455;53.224;6.000;2023-01-29T04:12:46;102722.25;;;4.39;100.00
10806;BME280;5455;53.224;6.000;2023-01-29T04:15:16;102723.34;;;4.38;100.00
10806;BME280;5455;53.224;6.000;2023-01-29T04:17:51;102723.34;;;4.43;100.00
10806;BME280;5455;53.224;6.000;2023-01-29T04:20:26;102715.16;;;4.43;100.00
10806;BME280;5455;53.224;6.000;2023-01-29T04:22:54;102712.97;;;4.45;100.00
10806;BME280;5455;53.224;6.000;2023-01-29T04:25:23;102711.34;;;4.44;100.00
10806;BME280;5455;53.224;6.000;2023-01-29T04:28:06;102714.06;;;4.44;100.00
10806;BME280;5455;53.224;6.000;2023-01-29T04:36:14;102715.16;;;4.48;100.00
10806;BME280;5455;53.224;6.000;2023-01-29T04:38:54;102719.28;;;4.56;100.00
10806;BME280;5455;53.224;6.000;2023-01-29T04:41:30;102721.72;;;4.52;100.00
10806;BME280;5455;53.224;6.000;2023-01-29T04:46:48;102725.28;;;4.53;100.00
10806;BME280;5455;53.224;6.000;2023-01-29T04:52:19;102710.50;;;4.54;100.00
10806;BME280;5455;53.224;6.000;2023-01-29T04:55:02;102715.44;;;4.52;100.00
10806;BME280;5455;53.224;6.000;2023-01-29T05:00:17;102709.44;;;4.55;100.00
10806;BME280;5455;53.224;6.000;2023-01-29T05:02:45;102691.94;;;4.56;100.00
10806;BME280;5455;53.224;6.000;2023-01-29T05:05:16;102693.31;;;4.53;100.00
10806;BME280;5455;53.224;6.000;2023-01-29T05:07:46;102680.19;;;4.55;100.00
10806;BME280;5455;53.224;6.000;2023-01-29T05:10:16;102680.19;;;4.55;100.00
10806;BME280;5455;53.224;6.000;2023-01-29T05:12:50;102682.41;;;4.53;100.00
10806;BME280;5455;53.224;6.000;2023-01-29T05:15:23;102677.19;;;4.57;100.00
10806;BME280;5455;53.224;6.000;2023-01-29T05:17:51;102664.34;;;4.57;100.00
10806;BME280;5455;53.224;6.000;2023-01-29T05:20:20;102670.94;;;4.56;100.00
10806;BME280;5455;53.224;6.000;2023-01-29T05:22:47;102662.44;;;4.58;100.00
10806;BME280;5455;53.224;6.000;2023-01-29T05:25:28;102664.09;;;4.59;100.00
10806;BME280;5455;53.224;6.000;2023-01-29T05:27:55;102652.31;;;4.63;100.00
10806;BME280;5455;53.224;6.000;2023-01-29T05:30:49;102648.78;;;4.63;100.00
10806;BME280;5455;53.224;6.000;2023-01-29T05:33:19;102649.59;;;4.63;100.00
10806;BME280;5455;53.224;6.000;2023-01-29T05:35:47;102655.06;;;4.63;100.00
10806;BME280;5455;53.224;6.000;2023-01-29T05:38:14;102654.78;;;4.65;100.00
10806;BME280;5455;53.224;6.000;2023-01-29T05:40:41;102652.88;;;4.65;100.00
10806;BME280;5455;53.224;6.000;2023-01-29T05:43:23;102647.69;;;4.64;100.00
10806;BME280;5455;53.224;6.000;2023-01-29T05:45:58;102637.28;;;4.66;100.00
10806;BME280;5455;53.224;6.000;2023-01-29T05:48:27;102620.09;;;4.60;100.00
10806;BME280;5455;53.224;6.000;2023-01-29T05:51:02;102611.91;;;4.55;100.00
10806;BME280;5455;53.224;6.000;2023-01-29T05:53:30;102613.28;;;4.53;100.00
10806;BME280;5455;53.224;6.000;2023-01-29T05:56:00;102616.28;;;4.51;100.00
10806;BME280;5455;53.224;6.000;2023-01-29T05:58:31;102607.56;;;4.49;100.00
10806;BME280;5455;53.224;6.000;2023-01-29T06:01:14;102610.84;;;4.46;100.00
10806;BME280;5455;53.224;6.000;2023-01-29T06:03:41;102605.66;;;4.44;100.00
10806;BME280;5455;53.224;6.000;2023-01-29T06:06:09;102605.91;;;4.43;100.00
10806;BME280;5455;53.224;6.000;2023-01-29T06:08:36;102618.75;;;4.42;100.00
10806;BME280;5455;53.224;6.000;2023-01-29T06:11:03;102612.47;;;4.42;100.00
10806;BME280;5455;53.224;6.000;2023-01-29T06:13:30;102610.56;;;4.42;100.00
10806;BME280;5455;53.224;6.000;2023-01-29T06:15:57;102590.91;;;4.40;100.00
10806;BME280;5455;53.224;6.000;2023-01-29T06:18:24;102595.84;;;4.38;100.00
10806;BME280;5455;53.224;6.000;2023-01-29T06:20:51;102600.19;;;4.39;100.00
10806;BME280;5455;53.224;6.000;2023-01-29T06:23:18;102608.66;;;4.43;100.00
10806;BME280;5455;53.224;6.000;2023-01-29T06:25:45;102608.94;;;4.41;100.00
10806;BME280;5455;53.224;6.000;2023-01-29T06:28:12;102608.13;;;4.41;100.00
10806;BME280;5455;53.224;6.000;2023-01-29T06:30:39;102604.03;;;4.38;100.00
10806;BME280;5455;53.224;6.000;2023-01-29T06:33:06;102603.47;;;4.36;100.00
10806;BME280;5455;53.224;6.000;2023-01-29T06:35:33;102602.94;;;4.34;100.00
10806;BME280;5455;53.224;6.000;2023-01-29T06:37:59;102601.28;;;4.33;100.00
10806;BME280;5455;53.224;6.000;2023-01-29T06:40:26;102606.75;;;4.33;100.00
10806;BME280;5455;53.224;6.000;2023-01-29T06:42:53;102607.03;;;4.32;100.00
10806;BME280;5455;53.224;6.000;2023-01-29T06:45:20;102605.91;;;4.33;100.00
10806;BME280;5455;53.224;6.000;2023-01-29T06:47:47;102598.84;;;4.32;100.00
10806;BME280;5455;53.224;6.000;2023-01-29T06:50:15;102601.56;;;4.32;100.00
10806;BME280;5455;53.224;6.000;2023-01-29T06:52:43;102589.28;;;4.29;100.00
10806;BME280;5455;53.224;6.000;2023-01-29T06:55:10;102591.75;;;4.26;100.00
10806;BME280;5455;53.224;6.000;2023-01-29T06:57:37;102590.38;;;4.23;100.00
10806;BME280;5455;53.224;6.000;2023-01-29T07:00:04;102592.00;;;4.19;100.00
10806;BME280;5455;53.224;6.000;2023-01-29T07:02:32;102586.00;;;4.17;100.00
10806;BME280;5455;53.224;6.000;2023-01-29T07:04:59;102580.56;;;4.17;100.00
10806;BME280;5455;53.224;6.000;2023-01-29T07:07:26;102570.72;;;4.16;100.00
10806;BME280;5455;53.224;6.000;2023-01-29T07:09:53;102571.81;;;4.15;100.00
10806;BME280;5455;53.224;6.000;2023-01-29T07:12:20;102576.19;;;4.16;100.00
10806;BME280;5455;53.224;6.000;2023-01-29T07:14:47;102575.09;;;4.17;100.00
10806;BME280;5455;53.224;6.000;2023-01-29T07:17:14;102573.44;;;4.16;100.00
10806;BME280;5455;53.224;6.000;2023-01-29T07:19:41;102572.38;;;4.17;100.00
10806;BME280;5455;53.224;6.000;2023-01-29T07:22:07;102575.09;;;4.17;100.00
10806;BME280;5455;53.224;6.000;2023-01-29T07:24:35;102575.63;;;4.19;100.00
10806;BME280;5455;53.224;6.000;2023-01-29T07:27:02;102571.25;;;4.18;100.00
10806;BME280;5455;53.224;6.000;2023-01-29T07:29:29;102566.63;;;4.19;100.00
10806;BME280;5455;53.224;6.000;2023-01-29T07:31:56;102565.25;;;4.21;100.00
10806;BME280;5455;53.224;6.000;2023-01-29T07:34:23;102566.63;;;4.19;100.00
10806;BME280;5455;53.224;6.000;2023-01-29T07:36:53;102561.72;;;4.16;100.00
10806;BME280;5455;53.224;6.000;2023-01-29T07:39:20;102557.63;;;4.13;100.00
10806;BME280;5455;53.224;6.000;2023-01-29T07:41:47;102550.81;;;4.11;100.00
10806;BME280;5455;53.224;6.000;2023-01-29T07:44:15;102545.59;;;4.09;100.00
10806;BME280;5455;53.224;6.000;2023-01-29T07:46:42;102551.88;;;4.10;100.00
10806;BME280;5455;53.224;6.000;2023-01-29T07:49:09;102553.78;;;4.09;100.00
10806;BME280;5455;53.224;6.000;2023-01-29T07:51:36;102556.50;;;4.09;100.00
10806;BME280;5455;53.224;6.000;2023-01-29T07:54:03;102548.91;;;4.11;100.00
10806;BME280;5455;53.224;6.000;2023-01-29T07:56:30;102551.63;;;4.11;100.00
10806;BME280;5455;53.224;6.000;2023-01-29T07:58:57;102559.53;;;4.13;100.00
10806;BME280;5455;53.224;6.000;2023-01-29T08:01:24;102557.31;;;4.15;100.00
10806;BME280;5455;53.224;6.000;2023-01-29T08:03:51;102560.06;;;4.15;100.00
10806;BME280;5455;53.224;6.000;2023-01-29T08:06:18;102560.88;;;4.15;100.00
10806;BME280;5455;53.224;6.000;2023-01-29T08:08:46;102549.97;;;4.15;100.00
10806;BME280;5455;53.224;6.000;2023-01-29T08:11:14;102548.59;;;4.18;100.00
10806;BME280;5455;53.224;6.000;2023-01-29T08:13:41;102546.69;;;4.23;100.00
10806;BME280;5455;53.224;6.000;2023-01-29T08:16:08;102540.69;;;4.26;100.00
10806;BME280;5455;53.224;6.000;2023-01-29T08:18:36;102537.13;;;4.26;100.00
10806;BME280;5455;53.224;6.000;2023-01-29T08:21:03;102534.41;;;4.26;100.00
10806;BME280;5455;53.224;6.000;2023-01-29T08:23:31;102537.66;;;4.28;100.00
10806;BME280;5455;53.224;6.000;2023-01-29T08:25:58;102527.56;;;4.28;100.00
10806;BME280;5455;53.224;6.000;2023-01-29T08:28:25;102524.00;;;4.28;100.00
10806;BME280;5455;53.224;6.000;2023-01-29T08:30:52;102525.38;;;4.25;100.00
10806;BME280;5455;53.224;6.000;2023-01-29T08:33:20;102519.94;;;4.25;100.00
10806;BME280;5455;53.224;6.000;2023-01-29T08:36:02;102524.84;;;4.28;100.00
10806;BME280;5455;53.224;6.000;2023-01-29T08:38:30;102513.91;;;4.33;100.00
10806;BME280;5455;53.224;6.000;2023-01-29T08:40:57;102516.34;;;4.40;100.00
10806;BME280;5455;53.224;6.000;2023-01-29T08:43:24;102510.06;;;4.50;100.00
10806;BME280;5455;53.224;6.000;2023-01-29T08:45:51;102512.50;;;4.56;100.00
10806;BME280;5455;53.224;6.000;2023-01-29T08:48:18;102507.28;;;4.55;100.00
10806;BME280;5455;53.224;6.000;2023-01-29T08:50:45;102510.84;;;4.55;100.00
10806;BME280;5455;53.224;6.000;2023-01-29T08:53:13;102514.66;;;4.54;100.00
10806;BME280;5455;53.224;6.000;2023-01-29T08:55:40;102501.31;;;4.53;100.00
10806;BME280;5455;53.224;6.000;2023-01-29T08:58:09;102505.09;;;4.57;100.00
10806;BME280;5455;53.224;6.000;2023-01-29T09:00:37;102498.00;;;4.61;100.00
10806;BME280;5455;53.224;6.000;2023-01-29T09:03:04;102503.44;;;4.66;100.00
10806;BME280;5455;53.224;6.000;2023-01-29T09:05:37;102501.50;;;4.71;100.00
10806;BME280;5455;53.224;6.000;2023-01-29T09:08:05;102509.72;;;4.71;100.00
10806;BME280;5455;53.224;6.000;2023-01-29T09:10:33;102508.88;;;4.76;100.00
10806;BME280;5455;53.224;6.000;2023-01-29T09:13:00;102508.31;;;4.79;100.00
10806;BME280;5455;53.224;6.000;2023-01-29T09:15:27;102503.94;;;4.78;100.00
10806;BME280;5455;53.224;6.000;2023-01-29T09:17:54;102487.00;;;4.76;100.00
10806;BME280;5455;53.224;6.000;2023-01-29T09:20:21;102494.66;;;4.74;100.00
10806;BME280;5455;53.224;6.000;2023-01-29T09:22:49;102493.56;;;4.75;100.00
10806;BME280;5455;53.224;6.000;2023-01-29T09:25:19;102487.81;;;4.76;100.00
10806;BME280;5455;53.224;6.000;2023-01-29T09:27:47;102492.72;;;4.79;100.00
10806;BME280;5455;53.224;6.000;2023-01-29T09:30:14;102484.28;;;4.76;100.00
10806;BME280;5455;53.224;6.000;2023-01-29T09:32:41;102480.72;;;4.80;100.00
10806;BME280;5455;53.224;6.000;2023-01-29T09:35:23;102480.44;;;4.77;100.00
10806;BME280;5455;53.224;6.000;2023-01-29T09:37:50;102478.81;;;4.76;100.00
10806;BME280;5455;53.224;6.000;2023-01-29T09:40:37;102482.88;;;4.83;100.00
10806;BME280;5455;53.224;6.000;2023-01-29T09:43:20;102476.56;;;4.88;100.00
10806;BME280;5455;53.224;6.000;2023-01-29T09:49:23;102470.00;;;4.89;100.00
10806;BME280;5455;53.224;6.000;2023-01-29T09:52:01;102465.59;;;4.93;100.00
10806;BME280;5455;53.224;6.000;2023-01-29T09:54:52;102472.75;;;4.89;100.00
10806;BME280;5455;53.224;6.000;2023-01-29T09:57:47;102462.88;;;4.93;100.00
10806;BME280;5455;53.224;6.000;2023-01-29T10:00:36;102464.81;;;4.92;100.00
10806;BME280;5455;53.224;6.000;2023-01-29T10:03:19;102460.94;;;4.93;100.00
10806;BME280;5455;53.224;6.000;2023-01-29T10:11:37;102480.38;;;4.87;100.00
10806;BME280;5455;53.224;6.000;2023-01-29T10:22:15;102456.59;;;4.92;100.00
10806;BME280;5455;53.224;6.000;2023-01-29T10:24:57;102455.78;;;4.92;100.00
10806;BME280;5455;53.224;6.000;2023-01-29T10:27:30;102453.88;;;4.92;100.00
10806;BME280;5455;53.224;6.000;2023-01-29T10:29:59;102447.28;;;4.93;100.00
10806;BME280;5455;53.224;6.000;2023-01-29T10:32:29;102450.84;;;4.94;100.00
10806;BME280;5455;53.224;6.000;2023-01-29T10:35:01;102439.91;;;4.94;100.00
10806;BME280;5455;53.224;6.000;2023-01-29T10:37:39;102434.97;;;4.96;100.00
10806;BME280;5455;53.224;6.000;2023-01-29T10:40:31;102435.22;;;5.05;100.00
10806;BME280;5455;53.224;6.000;2023-01-29T10:43:09;102429.44;;;5.06;100.00
10806;BME280;5455;53.224;6.000;2023-01-29T10:49:45;102422.91;;;5.07;100.00
10806;BME280;5455;53.224;6.000;2023-01-29T11:00:21;102403.66;;;5.22;100.00
10806;BME280;5455;53.224;6.000;2023-01-29T11:02:50;102392.66;;;5.27;100.00
10806;BME280;5455;53.224;6.000;2023-01-29T11:05:24;102396.75;;;5.30;100.00
10806;BME280;5455;53.224;6.000;2023-01-29T11:08:02;102394.53;;;5.32;100.00
10806;BME280;5455;53.224;6.000;2023-01-29T11:10:32;102389.03;;;5.37;100.00
10806;BME280;5455;53.224;6.000;2023-01-29T11:13:03;102390.91;;;5.41;100.00
10806;BME280;5455;53.224;6.000;2023-01-29T11:15:32;102376.66;;;5.44;100.00
10806;BME280;5455;53.224;6.000;2023-01-29T11:18:10;102371.94;;;5.50;100.00
10806;BME280;5455;53.224;6.000;2023-01-29T11:20:43;102368.63;;;5.53;100.00
10806;BME280;5455;53.224;6.000;2023-01-29T11:23:29;102366.13;;;5.62;100.00
10806;BME280;5455;53.224;6.000;2023-01-29T11:25:58;102366.88;;;5.67;100.00
10806;BME280;5455;53.224;6.000;2023-01-29T11:28:57;102354.34;;;5.61;100.00
10806;BME280;5455;53.224;6.000;2023-01-29T11:31:28;102359.00;;;5.61;100.00
10806;BME280;5455;53.224;6.000;2023-01-29T11:34:12;102349.91;;;5.65;100.00
10806;BME280;5455;53.224;6.000;2023-01-29T11:36:42;102355.34;;;5.70;100.00
10806;BME280;5455;53.224;6.000;2023-01-29T11:39:14;102350.16;;;5.69;100.00
10806;BME280;5455;53.224;6.000;2023-01-29T11:42:12;102348.53;;;5.68;100.00
10806;BME280;5455;53.224;6.000;2023-01-29T11:44:40;102341.69;;;5.65;100.00
10806;BME280;5455;53.224;6.000;2023-01-29T11:47:25;102338.13;;;5.70;100.00
10806;BME280;5455;53.224;6.000;2023-01-29T11:49:58;102331.88;;;5.64;100.00
10806;BME280;5455;53.224;6.000;2023-01-29T11:52:38;102329.47;;;5.57;100.00
10806;BME280;5455;53.224;6.000;2023-01-29T11:55:16;102319.94;;;5.55;100.00
10806;BME280;5455;53.224;6.000;2023-01-29T11:57:49;102311.72;;;5.55;100.00
10806;BME280;5455;53.224;6.000;2023-01-29T12:00:25;102309.59;;;5.47;100.00
10806;BME280;5455;53.224;6.000;2023-01-29T12:05:23;102298.38;;;5.48;100.00
10806;BME280;5455;53.224;6.000;2023-01-29T12:07:53;102289.94;;;5.45;100.00
10806;BME280;5455;53.224;6.000;2023-01-29T12:10:35;102286.34;;;5.49;100.00
10806;BME280;5455;53.224;6.000;2023-01-29T12:13:05;102286.34;;;5.49;100.00
10806;BME280;5455;53.224;6.000;2023-01-29T12:15:32;102276.00;;;5.46;100.00
10806;BME280;5455;53.224;6.000;2023-01-29T12:20:50;102257.41;;;5.43;100.00
10806;BME280;5455;53.224;6.000;2023-01-29T12:26:45;102247.28;;;5.44;100.00
10806;BME280;5455;53.224;6.000;2023-01-29T12:32:11;102229.75;;;5.45;100.00
10806;BME280;5455;53.224;6.000;2023-01-29T12:34:47;102219.41;;;5.42;100.00
10806;BME280;5455;53.224;6.000;2023-01-29T12:37:22;102215.25;;;5.44;100.00
10806;BME280;5455;53.224;6.000;2023-01-29T12:39:51;102210.63;;;5.45;100.00
10806;BME280;5455;53.224;6.000;2023-01-29T12:42:23;102208.97;;;5.44;100.00
10806;BME280;5455;53.224;6.000;2023-01-29T12:47:41;102197.84;;;5.40;100.00
10806;BME280;5455;53.224;6.000;2023-01-29T12:50:28;102197.28;;;5.38;100.00
10806;BME280;5455;53.224;6.000;2023-01-29T12:55:47;102185.59;;;5.33;100.00
10806;BME280;5455;53.224;6.000;2023-01-29T12:58:23;102178.47;;;5.32;100.00
10806;BME280;5455;53.224;6.000;2023-01-29T13:00:56;102169.19;;;5.33;100.00
10806;BME280;5455;53.224;6.000;2023-01-29T13:03:48;102165.34;;;5.34;100.00
10806;BME280;5455;53.224;6.000;2023-01-29T13:09:16;102160.47;;;5.31;100.00
10806;BME280;5455;53.224;6.000;2023-01-29T13:12:06;102159.47;;;5.22;100.00
10806;BME280;5455;53.224;6.000;2023-01-29T13:17:18;102163.53;;;5.00;100.00
10806;BME280;5455;53.224;6.000;2023-01-29T13:19:52;102147.25;;;4.90;100.00
10806;BME280;5455;53.224;6.000;2023-01-29T13:22:25;102151.44;;;4.83;100.00
10806;BME280;5455;53.224;6.000;2023-01-29T13:24:53;102141.34;;;4.78;100.00
10806;BME280;5455;53.224;6.000;2023-01-29T13:27:33;102142.47;;;4.77;100.00
10806;BME280;5455;53.224;6.000;2023-01-29T13:30:01;102135.59;;;4.80;100.00
10806;BME280;5455;53.224;6.000;2023-01-29T13:32:30;102138.34;;;4.80;100.00
10806;BME280;5455;53.224;6.000;2023-01-29T13:35:01;102124.44;;;4.76;100.00
10806;BME280;5455;53.224;6.000;2023-01-29T13:37:46;102127.44;;;4.75;100.00
10806;BME280;5455;53.224;6.000;2023-01-29T13:40:25;102110.47;;;4.78;100.00
10806;BME280;5455;53.224;6.000;2023-01-29T13:42:53;102111.34;;;4.73;100.00
10806;BME280;5455;53.224;6.000;2023-01-29T13:48:16;102101.84;;;4.66;100.00
10806;BME280;5455;53.224;6.000;2023-01-29T13:50:46;102099.44;;;4.64;100.00
10806;BME280;5455;53.224;6.000;2023-01-29T13:53:26;102099.66;;;4.68;100.00
10806;BME280;5455;53.224;6.000;2023-01-29T13:55:54;102090.34;;;4.69;100.00
10806;BME280;5455;53.224;6.000;2023-01-29T14:00:58;102080.00;;;4.66;100.00
10806;BME280;5455;53.224;6.000;2023-01-29T14:06:35;102074.53;;;4.66;100.00
10806;BME280;5455;53.224;6.000;2023-01-29T14:09:31;102084.63;;;4.70;100.00
10806;BME280;5455;53.224;6.000;2023-01-29T14:11:58;102078.31;;;4.70;100.00
10806;BME280;5455;53.224;6.000;2023-01-29T14:17:16;102070.06;;;4.75;100.00
10806;BME280;5455;53.224;6.000;2023-01-29T14:19:52;102061.03;;;4.79;100.00
10806;BME280;5455;53.224;6.000;2023-01-29T14:22:23;102056.31;;;4.85;100.00
10806;BME280;5455;53.224;6.000;2023-01-29T14:24:55;102055.16;;;4.91;100.00
10806;BME280;5455;53.224;6.000;2023-01-29T14:27:24;102054.03;;;4.92;100.00
10806;BME280;5455;53.224;6.000;2023-01-29T14:29:58;102047.47;;;4.93;100.00
10806;BME280;5455;53.224;6.000;2023-01-29T14:32:26;102045.25;;;4.95;100.00
10806;BME280;5455;53.224;6.000;2023-01-29T14:35:02;102038.69;;;4.96;100.00
10806;BME280;5455;53.224;6.000;2023-01-29T14:37:39;102020.66;;;4.95;100.00
10806;BME280;5455;53.224;6.000;2023-01-29T14:53:19;102029.63;;;4.77;100.00
10806;BME280;5455;53.224;6.000;2023-01-29T14:56:03;102029.88;;;4.80;100.00
10806;BME280;5455;53.224;6.000;2023-01-29T14:58:47;102025.66;;;4.88;100.00
10806;BME280;5455;53.224;6.000;2023-01-29T15:01:53;102026.28;;;5.04;100.00
10806;BME280;5455;53.224;6.000;2023-01-29T15:04:44;102023.13;;;5.15;100.00
10806;BME280;5455;53.224;6.000;2023-01-29T15:07:28;102017.00;;;5.23;100.00
10806;BME280;5455;53.224;6.000;2023-01-29T15:10:19;102005.19;;;5.28;100.00
10806;BME280;5455;53.224;6.000;2023-01-29T15:15:54;102008.88;;;5.37;100.00
10806;BME280;5455;53.224;6.000;2023-01-29T15:18:32;102002.97;;;5.48;100.00
10806;BME280;5455;53.224;6.000;2023-01-29T15:21:02;102002.53;;;5.60;100.00
10806;BME280;5455;53.224;6.000;2023-01-29T15:23:32;101997.72;;;5.71;100.00
10806;BME280;5455;53.224;6.000;2023-01-29T15:26:02;101995.72;;;5.76;100.00
10806;BME280;5455;53.224;6.000;2023-01-29T15:28:32;101999.16;;;5.82;100.00
10806;BME280;5455;53.224;6.000;2023-01-29T15:31:02;101989.81;;;5.83;100.00
10806;BME280;5455;53.224;6.000;2023-01-29T15:33:30;101996.13;;;5.83;100.00
10806;BME280;5455;53.224;6.000;2023-01-29T15:36:00;101983.25;;;5.84;100.00